createdAt,value
2023-02-04T00:01:25.524Z,6.47
2023-02-04T00:03:51.998Z,6.38
2023-02-04T00:06:18.565Z,6.40
2023-02-04T00:08:45.235Z,6.41
2023-02-04T00:11:11.776Z,6.32
2023-02-04T00:13:38.419Z,6.26
2023-02-04T00:16:05.332Z,6.17
2023-02-04T00:18:31.813Z,6.25
2023-02-04T00:20:58.410Z,6.23
2023-02-04T00:23:25.001Z,6.17
2023-02-04T00:25:51.595Z,6.23
2023-02-04T00:28:18.192Z,6.19
2023-02-04T00:30:44.864Z,6.24
2023-02-04T00:33:11.364Z,6.21
2023-02-04T00:35:37.952Z,6.22
2023-02-04T00:38:05.501Z,6.21
2023-02-04T00:40:33.137Z,6.25
2023-02-04T00:42:59.797Z,6.15
2023-02-04T00:45:26.491Z,6.16
2023-02-04T00:47:53.157Z,6.26
2023-02-04T00:50:19.811Z,6.28
2023-02-04T00:52:46.455Z,6.15
2023-02-04T00:55:13.964Z,6.20
2023-02-04T00:57:40.501Z,6.21
2023-02-04T01:00:09.035Z,6.23
2023-02-04T01:02:35.662Z,6.24
2023-02-04T01:05:03.058Z,6.25
2023-02-04T01:07:29.573Z,6.28
2023-02-04T01:09:56.200Z,6.31
2023-02-04T01:12:22.723Z,6.30
2023-02-04T01:14:49.608Z,6.34
2023-02-04T01:17:16.076Z,6.37
2023-02-04T01:19:42.599Z,6.33
2023-02-04T01:22:09.114Z,6.33
2023-02-04T01:24:35.660Z,6.25
2023-02-04T01:27:25.603Z,6.25
2023-02-04T01:29:52.112Z,6.22
2023-02-04T01:32:18.605Z,6.20
2023-02-04T01:34:45.680Z,6.23
2023-02-04T01:37:12.228Z,6.20
2023-02-04T01:39:38.894Z,6.16
2023-02-04T01:42:05.706Z,6.16
2023-02-04T01:44:32.367Z,6.08
2023-02-04T01:46:59.560Z,6.11
2023-02-04T01:49:26.771Z,6.08
2023-02-04T01:51:53.383Z,6.07
2023-02-04T01:54:20.125Z,6.05
2023-02-04T01:56:47.913Z,6.09
2023-02-04T01:59:16.761Z,6.11
2023-02-04T02:01:46.517Z,6.11
2023-02-04T02:04:16.367Z,6.11
2023-02-04T02:06:48.566Z,6.11
2023-02-04T02:09:15.220Z,6.12
2023-02-04T02:11:43.322Z,6.18
2023-02-04T02:14:09.995Z,6.22
2023-02-04T02:16:36.917Z,6.22
2023-02-04T02:19:05.660Z,6.22
2023-02-04T02:22:20.842Z,6.23
2023-02-04T02:24:47.432Z,6.25
2023-02-04T02:27:13.971Z,6.28
2023-02-04T02:29:42.351Z,6.27
2023-02-04T02:32:12.372Z,6.29
2023-02-04T02:34:39.580Z,6.27
2023-02-04T02:37:07.113Z,6.30
2023-02-04T02:39:33.705Z,6.32
2023-02-04T02:42:00.454Z,6.28
2023-02-04T02:44:29.025Z,6.32
2023-02-04T02:46:57.472Z,6.33
2023-02-04T02:49:24.246Z,6.38
2023-02-04T02:51:50.884Z,6.39
2023-02-04T02:54:29.702Z,6.43
2023-02-04T02:56:59.551Z,6.38
2023-02-04T02:59:27.394Z,6.47
2023-02-04T03:01:58.328Z,6.49
2023-02-04T03:04:30.011Z,6.53
2023-02-04T03:06:57.029Z,6.52
2023-02-04T03:09:27.176Z,6.54
2023-02-04T03:11:54.318Z,6.53
2023-02-04T03:14:23.463Z,6.51
2023-02-04T03:16:50.765Z,6.47
2023-02-04T03:19:17.287Z,6.48
2023-02-04T03:21:45.545Z,6.53
2023-02-04T03:24:12.402Z,6.51
2023-02-04T03:26:38.996Z,6.50
2023-02-04T03:29:10.192Z,6.52
2023-02-04T03:31:37.664Z,6.64
2023-02-04T03:34:04.962Z,6.84
2023-02-04T03:36:31.445Z,6.88
2023-02-04T03:38:58.754Z,7.09
2023-02-04T03:41:25.360Z,7.11
2023-02-04T03:43:52.026Z,7.00
2023-02-04T03:46:18.537Z,6.84
2023-02-04T03:48:45.171Z,6.72
2023-02-04T03:51:11.636Z,6.60
2023-02-04T03:53:38.096Z,6.43
2023-02-04T03:56:05.163Z,6.34
2023-02-04T03:58:31.632Z,6.31
2023-02-04T04:00:58.645Z,6.32
2023-02-04T04:03:25.241Z,6.33
2023-02-04T04:05:51.698Z,6.36
2023-02-04T04:08:18.273Z,6.33
2023-02-04T04:10:44.865Z,6.18
2023-02-04T04:13:11.716Z,6.05
2023-02-04T04:15:38.317Z,6.11
2023-02-04T04:18:04.986Z,6.01
2023-02-04T04:20:31.829Z,5.95
2023-02-04T04:22:58.500Z,5.86
2023-02-04T04:25:25.425Z,5.80
2023-02-04T04:27:51.939Z,5.77
2023-02-04T04:30:18.715Z,5.73
2023-02-04T04:32:45.245Z,5.75
2023-02-04T04:35:12.242Z,5.77
2023-02-04T04:37:38.757Z,5.70
2023-02-04T04:40:05.727Z,5.70
2023-02-04T04:42:32.278Z,5.67
2023-02-04T04:44:58.887Z,5.65
2023-02-04T04:47:25.415Z,5.63
2023-02-04T04:49:51.962Z,5.61
2023-02-04T04:52:18.504Z,5.57
2023-02-04T04:54:45.081Z,5.53
2023-02-04T04:57:11.651Z,5.48
2023-02-04T04:59:38.276Z,5.40
2023-02-04T05:02:04.732Z,5.38
2023-02-04T05:04:31.445Z,5.34
2023-02-04T05:06:57.961Z,5.32
2023-02-04T05:09:24.565Z,5.29
2023-02-04T05:11:51.160Z,5.30
2023-02-04T05:14:17.773Z,5.30
2023-02-04T05:16:44.250Z,5.32
2023-02-04T05:19:10.858Z,5.33
2023-02-04T05:21:37.453Z,5.36
2023-02-04T05:24:04.211Z,5.37
2023-02-04T05:26:31.454Z,5.39
2023-02-04T05:28:59.084Z,5.40
2023-02-04T05:31:25.838Z,5.43
2023-02-04T05:33:52.337Z,5.46
2023-02-04T05:36:18.926Z,5.46
2023-02-04T05:38:45.465Z,5.47
2023-02-04T05:41:12.684Z,5.50
2023-02-04T05:43:39.225Z,5.47
2023-02-04T05:46:06.014Z,5.47
2023-02-04T05:48:32.587Z,5.50
2023-02-04T05:50:59.066Z,5.53
2023-02-04T05:53:26.285Z,5.55
2023-02-04T05:55:53.160Z,5.55
2023-02-04T05:58:19.838Z,5.54
2023-02-04T06:00:46.307Z,5.57
2023-02-04T06:03:12.890Z,5.57
2023-02-04T06:05:39.480Z,5.56
2023-02-04T06:08:06.180Z,5.57
2023-02-04T06:10:33.108Z,5.59
2023-02-04T06:12:59.770Z,5.55
2023-02-04T06:15:26.228Z,5.61
2023-02-04T06:17:52.708Z,5.60
2023-02-04T06:20:19.548Z,5.60
2023-02-04T06:22:46.028Z,5.64
2023-02-04T06:25:12.488Z,5.64
2023-02-04T06:27:39.087Z,5.65
2023-02-04T06:30:06.012Z,5.63
2023-02-04T06:32:32.600Z,5.64
2023-02-04T06:34:59.221Z,5.63
2023-02-04T06:37:25.787Z,5.65
2023-02-04T06:39:52.450Z,5.68
2023-02-04T06:42:19.052Z,5.67
2023-02-04T06:44:45.691Z,5.67
2023-02-04T06:47:12.263Z,5.74
2023-02-04T06:49:38.723Z,5.67
2023-02-04T06:52:05.452Z,5.73
2023-02-04T06:54:31.993Z,5.77
2023-02-04T06:56:58.444Z,5.79
2023-02-04T06:59:25.022Z,5.82
2023-02-04T07:01:51.598Z,5.84
2023-02-04T07:04:18.140Z,5.87
2023-02-04T07:06:44.724Z,5.89
2023-02-04T07:09:11.397Z,5.90
2023-02-04T07:11:37.860Z,5.93
2023-02-04T07:14:04.452Z,5.95
2023-02-04T07:16:31.053Z,5.96
2023-02-04T07:18:57.625Z,6.01
2023-02-04T07:21:24.176Z,6.01
2023-02-04T07:23:50.657Z,6.02
2023-02-04T07:26:17.140Z,6.06
2023-02-04T07:28:43.772Z,6.10
2023-02-04T07:31:10.743Z,6.09
2023-02-04T07:33:37.339Z,6.11
2023-02-04T07:36:04.437Z,6.12
2023-02-04T07:38:30.956Z,6.11
2023-02-04T07:40:57.446Z,6.13
2023-02-04T07:43:24.383Z,6.17
2023-02-04T07:45:50.948Z,6.17
2023-02-04T07:48:17.427Z,6.17
2023-02-04T07:50:43.904Z,6.16
2023-02-04T07:53:10.473Z,6.20
2023-02-04T07:55:36.970Z,6.21
2023-02-04T07:58:03.966Z,6.21
2023-02-04T08:00:30.769Z,6.22
2023-02-04T08:02:57.456Z,6.24
2023-02-04T08:05:24.056Z,6.21
2023-02-04T08:07:50.634Z,6.27
2023-02-04T08:10:17.452Z,6.28
2023-02-04T08:12:43.975Z,6.27
2023-02-04T08:15:10.514Z,6.26
2023-02-04T08:17:36.977Z,6.30
2023-02-04T08:20:04.022Z,6.32
2023-02-04T08:22:30.591Z,6.28
2023-02-04T08:24:57.113Z,6.32
2023-02-04T08:27:23.687Z,6.34
2023-02-04T08:29:50.191Z,6.39
2023-02-04T08:32:16.704Z,6.38
2023-02-04T08:34:43.188Z,6.42
2023-02-04T08:37:09.724Z,6.43
2023-02-04T08:39:36.424Z,6.45
2023-02-04T08:42:02.980Z,6.47
2023-02-04T08:44:29.748Z,6.40
2023-02-04T08:46:56.254Z,6.45
2023-02-04T08:49:22.876Z,6.42
2023-02-04T08:51:49.376Z,6.44
2023-02-04T08:54:15.860Z,6.42
2023-02-04T08:56:42.366Z,6.45
2023-02-04T08:59:08.942Z,6.48
2023-02-04T09:01:35.469Z,6.50
2023-02-04T09:04:01.984Z,6.52
2023-02-04T09:06:28.472Z,6.56
2023-02-04T09:08:54.978Z,6.57
2023-02-04T09:11:21.495Z,6.61
2023-02-04T09:13:48.149Z,6.63
2023-02-04T09:16:14.677Z,6.66
2023-02-04T09:18:41.250Z,6.67
2023-02-04T09:21:07.831Z,6.71
2023-02-04T09:23:34.397Z,6.66
2023-02-04T09:26:00.858Z,6.71
2023-02-04T09:28:27.448Z,6.73
2023-02-04T09:30:54.019Z,6.75
2023-02-04T09:33:20.561Z,6.78
2023-02-04T09:35:47.033Z,6.87
2023-02-04T09:38:13.712Z,6.92
2023-02-04T09:40:49.848Z,6.96
2023-02-04T09:43:21.769Z,7.01
2023-02-04T09:45:48.900Z,7.01
2023-02-04T09:48:15.496Z,7.03
2023-02-04T09:50:42.260Z,7.03
2023-02-04T09:53:13.878Z,7.24
2023-02-04T09:55:44.216Z,7.33
2023-02-04T09:58:22.261Z,7.30
2023-02-04T10:01:08.989Z,7.20
2023-02-04T10:03:35.659Z,7.32
2023-02-04T10:06:02.397Z,7.28
2023-02-04T10:08:31.119Z,7.21
2023-02-04T10:10:58.211Z,7.07
2023-02-04T10:13:32.885Z,6.89
2023-02-04T10:16:00.188Z,6.72
2023-02-04T10:18:30.232Z,6.56
2023-02-04T10:21:08.869Z,6.70
2023-02-04T10:23:35.426Z,6.64
2023-02-04T10:26:03.384Z,6.46
2023-02-04T10:28:36.821Z,6.30
2023-02-04T10:31:03.841Z,6.35
2023-02-04T10:33:30.500Z,6.34
2023-02-04T10:35:57.210Z,6.37
2023-02-04T10:38:24.212Z,6.41
2023-02-04T10:41:05.274Z,6.39
2023-02-04T10:43:32.686Z,6.38
2023-02-04T10:46:02.394Z,6.32
2023-02-04T10:48:29.585Z,6.29
2023-02-04T10:50:57.044Z,6.21
2023-02-04T10:53:25.258Z,6.22
2023-02-04T10:55:51.830Z,6.29
2023-02-04T10:58:28.796Z,6.31
2023-02-04T11:00:55.633Z,6.21
2023-02-04T11:03:25.007Z,6.15
2023-02-04T11:05:52.898Z,6.17
2023-02-04T11:08:25.827Z,6.14
2023-02-04T11:10:58.961Z,6.09
2023-02-04T11:13:38.815Z,6.09
2023-02-04T11:16:17.738Z,6.11
2023-02-04T11:18:48.853Z,6.03
2023-02-04T11:21:26.120Z,5.98
2023-02-04T11:24:13.809Z,5.86
2023-02-04T11:26:44.384Z,5.80
2023-02-04T11:29:10.993Z,5.80
2023-02-04T11:31:48.628Z,5.82
2023-02-04T11:34:15.115Z,5.89
2023-02-04T11:36:56.686Z,5.93
2023-02-04T11:39:27.002Z,6.06
2023-02-04T11:41:53.671Z,6.16
2023-02-04T11:44:20.333Z,6.24
2023-02-04T11:46:52.499Z,6.29
2023-02-04T11:49:20.668Z,6.42
2023-02-04T11:51:47.176Z,6.45
2023-02-04T11:54:15.967Z,6.56
2023-02-04T11:56:42.916Z,6.61
2023-02-04T11:59:12.344Z,6.67
2023-02-04T12:01:39.361Z,6.74
2023-02-04T12:04:08.286Z,6.82
2023-02-04T12:06:37.381Z,6.87
2023-02-04T12:09:25.607Z,6.93
2023-02-04T12:11:53.018Z,6.99
2023-02-04T12:14:20.037Z,7.09
2023-02-04T12:16:51.365Z,7.07
2023-02-04T12:19:18.073Z,7.07
2023-02-04T12:21:45.081Z,7.04
2023-02-04T12:24:11.655Z,7.09
2023-02-04T12:26:38.180Z,7.23
2023-02-04T12:29:04.728Z,7.24
2023-02-04T12:31:32.231Z,7.17
2023-02-04T12:33:59.562Z,7.18
2023-02-04T12:36:26.892Z,7.17
2023-02-04T12:38:53.999Z,7.24
2023-02-04T12:41:20.473Z,7.24
2023-02-04T12:43:47.418Z,7.26
2023-02-04T12:46:13.963Z,7.19
2023-02-04T12:48:40.594Z,7.16
2023-02-04T12:51:07.742Z,7.12
2023-02-04T12:53:34.388Z,7.05
2023-02-04T12:56:00.860Z,6.99
2023-02-04T12:58:27.363Z,6.99
2023-02-04T13:00:54.005Z,6.94
2023-02-04T13:03:20.528Z,6.93
2023-02-04T13:05:47.005Z,6.88
2023-02-04T13:08:13.561Z,6.91
2023-02-04T13:10:40.053Z,6.90
2023-02-04T13:13:06.645Z,6.94
2023-02-04T13:15:33.478Z,6.92
2023-02-04T13:18:00.127Z,6.92
2023-02-04T13:20:26.669Z,6.93
2023-02-04T13:22:53.215Z,6.95
2023-02-04T13:25:19.772Z,7.00
2023-02-04T13:27:46.300Z,7.06
2023-02-04T13:30:14.705Z,7.04
2023-02-04T13:32:41.435Z,7.13
2023-02-04T13:35:08.182Z,7.08
2023-02-04T13:37:34.867Z,7.10
2023-02-04T13:40:01.353Z,7.05
2023-02-04T13:42:27.894Z,7.03
2023-02-04T13:44:54.380Z,7.02
2023-02-04T13:47:21.162Z,7.02
2023-02-04T13:49:47.941Z,7.00
2023-02-04T13:52:14.505Z,6.96
2023-02-04T13:54:41.039Z,6.96
2023-02-04T13:57:07.676Z,6.89
2023-02-04T13:59:34.175Z,6.88
2023-02-04T14:02:00.741Z,6.89
2023-02-04T14:04:27.437Z,6.87
2023-02-04T14:06:54.611Z,6.86
2023-02-04T14:09:21.266Z,6.81
2023-02-04T14:11:47.841Z,6.79
2023-02-04T14:14:14.435Z,6.81
2023-02-04T14:16:41.218Z,6.82
2023-02-04T14:19:07.782Z,6.79
2023-02-04T14:21:34.315Z,6.79
2023-02-04T14:24:00.943Z,6.76
2023-02-04T14:26:27.463Z,6.74
2023-02-04T14:28:54.029Z,6.75
2023-02-04T14:31:20.900Z,6.76
2023-02-04T14:33:49.920Z,6.77
2023-02-04T14:36:16.908Z,6.75
2023-02-04T14:38:43.408Z,6.77
2023-02-04T14:41:09.998Z,6.74
2023-02-04T14:43:36.499Z,6.70
2023-02-04T14:46:06.915Z,6.70
2023-02-04T14:48:33.675Z,6.71
2023-02-04T14:51:00.282Z,6.74
2023-02-04T14:53:26.757Z,6.72
2023-02-04T14:55:53.255Z,6.72
2023-02-04T14:58:19.808Z,6.69
2023-02-04T15:00:46.552Z,6.69
2023-02-04T15:03:13.244Z,6.69
2023-02-04T15:05:39.821Z,6.69
2023-02-04T15:08:06.385Z,6.66
2023-02-04T15:10:33.125Z,6.69
2023-02-04T15:13:00.060Z,6.63
2023-02-04T15:15:26.633Z,6.64
2023-02-04T15:17:53.115Z,6.64
2023-02-04T15:20:19.797Z,6.63
2023-02-04T15:22:46.374Z,6.62
2023-02-04T15:25:13.260Z,6.66
2023-02-04T15:27:39.876Z,6.62
2023-02-04T15:30:06.671Z,6.58
2023-02-04T15:32:33.210Z,6.51
2023-02-04T15:34:59.761Z,6.47
2023-02-04T15:37:26.303Z,6.44
2023-02-04T15:39:53.000Z,6.42
2023-02-04T15:42:19.591Z,6.37
2023-02-04T15:44:46.094Z,6.32
2023-02-04T15:47:12.616Z,6.30
2023-02-04T15:49:39.122Z,6.27
2023-02-04T15:52:07.145Z,6.23
2023-02-04T15:54:37.526Z,6.21
2023-02-04T15:57:04.112Z,6.20
2023-02-04T15:59:30.762Z,6.17
2023-02-04T16:01:57.772Z,6.17
2023-02-04T16:04:24.609Z,6.11
2023-02-04T16:06:58.338Z,6.08
2023-02-04T16:09:25.799Z,6.04
2023-02-04T16:11:52.333Z,6.04
2023-02-04T16:14:18.948Z,6.03
2023-02-04T16:16:45.523Z,6.02
2023-02-04T16:19:12.146Z,5.99
2023-02-04T16:21:38.686Z,5.97
2023-02-04T16:24:05.734Z,5.95
2023-02-04T16:26:32.391Z,5.91
2023-02-04T16:28:58.985Z,5.89
2023-02-04T16:31:25.572Z,5.87
2023-02-04T16:33:52.269Z,5.85
2023-02-04T16:36:19.079Z,5.81
2023-02-04T16:38:45.698Z,5.78
2023-02-04T16:41:12.180Z,5.74
2023-02-04T16:43:38.747Z,5.67
2023-02-04T16:46:05.489Z,5.63
2023-02-04T16:48:32.172Z,5.57
2023-02-04T16:50:58.683Z,5.51
2023-02-04T16:53:25.334Z,5.46
2023-02-04T16:55:51.924Z,5.41
2023-02-04T16:58:18.648Z,5.37
2023-02-04T17:00:45.485Z,5.34
2023-02-04T17:03:12.566Z,5.29
2023-02-04T17:05:40.212Z,5.24
2023-02-04T17:08:07.430Z,5.20
2023-02-04T17:10:34.173Z,5.20
2023-02-04T17:13:00.672Z,5.17
2023-02-04T17:15:27.233Z,5.16
2023-02-04T17:17:53.767Z,5.15
2023-02-04T17:20:20.404Z,5.14
2023-02-04T17:22:46.937Z,5.12
2023-02-04T17:25:13.472Z,5.11
2023-02-04T17:27:40.075Z,5.08
2023-02-04T17:30:07.132Z,5.08
2023-02-04T17:32:33.700Z,5.07
2023-02-04T17:35:00.423Z,5.06
2023-02-04T17:37:27.195Z,5.07
2023-02-04T17:39:54.456Z,5.03
2023-02-04T17:42:20.972Z,5.01
2023-02-04T17:44:47.470Z,5.00
2023-02-04T17:47:13.964Z,4.97
2023-02-04T17:49:40.601Z,4.95
2023-02-04T17:52:07.174Z,4.90
2023-02-04T17:54:34.195Z,4.88
2023-02-04T17:57:16.491Z,4.84
2023-02-04T17:59:42.999Z,4.82
2023-02-04T18:02:27.165Z,4.79
2023-02-04T18:04:55.230Z,4.74
2023-02-04T18:07:22.794Z,4.69
2023-02-04T18:09:49.293Z,4.63
2023-02-04T18:12:17.298Z,4.61
2023-02-04T18:14:44.136Z,4.56
2023-02-04T18:17:13.824Z,4.51
2023-02-04T18:19:41.243Z,4.46
2023-02-04T18:22:15.692Z,4.40
2023-02-04T18:24:44.811Z,4.36
2023-02-04T18:27:15.989Z,4.32
2023-02-04T18:29:45.084Z,4.27
2023-02-04T18:32:23.332Z,4.22
2023-02-04T18:34:54.886Z,4.19
2023-02-04T18:37:31.953Z,4.14
2023-02-04T18:40:10.617Z,4.09
2023-02-04T18:42:39.201Z,4.04
2023-02-04T18:45:26.637Z,3.95
2023-02-04T18:48:21.772Z,3.87
2023-02-04T18:50:50.448Z,3.82
2023-02-04T18:53:27.655Z,3.74
2023-02-04T18:55:57.017Z,3.67
2023-02-04T18:58:40.577Z,3.59
2023-02-04T19:01:19.959Z,3.53
2023-02-04T19:03:52.037Z,3.47
2023-02-04T19:06:40.199Z,3.41
2023-02-04T19:09:13.322Z,3.33
2023-02-04T19:11:56.786Z,3.25
2023-02-04T19:14:23.230Z,3.21
2023-02-04T19:16:52.110Z,3.16
2023-02-04T19:19:34.139Z,3.09
2023-02-04T19:22:01.687Z,3.04
2023-02-04T19:24:28.418Z,3.00
2023-02-04T19:26:59.040Z,2.95
2023-02-04T19:29:25.508Z,2.90
2023-02-04T19:31:55.671Z,2.85
2023-02-04T19:34:28.657Z,2.81
2023-02-04T19:36:55.609Z,2.78
2023-02-04T19:39:29.777Z,2.73
2023-02-04T19:41:57.104Z,2.70
2023-02-04T19:44:33.308Z,2.65
2023-02-04T19:47:19.569Z,2.61
2023-02-04T19:49:46.152Z,2.58
2023-02-04T19:52:28.991Z,2.53
2023-02-04T19:55:02.304Z,2.50
2023-02-04T19:57:32.369Z,2.47
2023-02-04T19:59:59.029Z,2.45
2023-02-04T20:02:32.846Z,2.40
2023-02-04T20:05:00.109Z,2.38
2023-02-04T20:07:29.281Z,2.34
2023-02-04T20:10:07.988Z,2.30
2023-02-04T20:12:34.540Z,2.29
2023-02-04T20:15:13.962Z,2.23
2023-02-04T20:17:44.908Z,2.21
2023-02-04T20:20:18.937Z,2.15
2023-02-04T20:22:51.129Z,2.13
2023-02-04T20:25:20.633Z,2.08
2023-02-04T20:27:51.998Z,2.06
2023-02-04T20:30:25.945Z,2.02
2023-02-04T20:32:55.925Z,1.99
2023-02-04T20:35:22.425Z,1.96
2023-02-04T20:37:54.991Z,1.92
2023-02-04T20:40:35.934Z,1.89
2023-02-04T20:43:34.380Z,1.84
2023-02-04T20:46:02.811Z,1.84
2023-02-04T20:48:37.486Z,1.80
2023-02-04T20:51:05.343Z,1.79
2023-02-04T20:53:38.702Z,1.75
2023-02-04T20:56:20.350Z,1.72
2023-02-04T20:58:46.909Z,1.72
2023-02-04T21:01:33.221Z,1.69
2023-02-04T21:04:31.860Z,1.67
2023-02-04T21:07:01.400Z,1.67
2023-02-04T21:09:29.808Z,1.68
2023-02-04T21:11:57.891Z,1.68
2023-02-04T21:14:24.811Z,1.61
2023-02-04T21:16:52.270Z,1.65
2023-02-04T21:19:18.851Z,1.64
2023-02-04T21:21:45.308Z,1.64
2023-02-04T21:24:12.211Z,1.63
2023-02-04T21:26:38.794Z,1.61
2023-02-04T21:29:05.804Z,1.63
2023-02-04T21:31:32.988Z,1.63
2023-02-04T21:33:59.833Z,1.65
2023-02-04T21:36:26.480Z,1.67
2023-02-04T21:38:53.677Z,1.70
2023-02-04T21:41:20.724Z,1.71
2023-02-04T21:43:48.376Z,1.74
2023-02-04T21:46:15.565Z,1.76
2023-02-04T21:48:42.301Z,1.79
2023-02-04T21:51:08.854Z,1.83
2023-02-04T21:53:35.401Z,1.88
2023-02-04T21:56:01.916Z,1.89
2023-02-04T21:58:28.404Z,1.90
2023-02-04T22:00:55.057Z,1.92
2023-02-04T22:03:21.644Z,1.93
2023-02-04T22:05:48.282Z,1.94
2023-02-04T22:08:14.846Z,1.96
2023-02-04T22:10:41.563Z,1.97
2023-02-04T22:13:08.051Z,1.98
2023-02-04T22:15:34.912Z,2.00
2023-02-04T22:18:01.908Z,2.02
2023-02-04T22:20:28.472Z,2.02
2023-02-04T22:22:55.332Z,2.03
2023-02-04T22:25:22.165Z,2.04
2023-02-04T22:27:49.002Z,2.04
2023-02-04T22:30:16.855Z,2.05
2023-02-04T22:32:43.320Z,2.05
2023-02-04T22:35:10.852Z,2.05
2023-02-04T22:37:41.492Z,2.07
2023-02-04T22:40:09.788Z,2.07
2023-02-04T22:42:36.365Z,2.09
2023-02-04T22:45:02.960Z,2.10
2023-02-04T22:47:30.230Z,2.10
2023-02-04T22:49:56.872Z,2.10
2023-02-04T22:52:23.381Z,2.11
2023-02-04T22:54:50.610Z,2.11
2023-02-04T22:57:17.279Z,2.11
2023-02-04T22:59:43.826Z,2.11
2023-02-04T23:02:10.319Z,2.11
2023-02-04T23:04:36.853Z,2.10
2023-02-04T23:07:03.482Z,2.10
2023-02-04T23:09:31.481Z,2.08
2023-02-04T23:11:58.392Z,1.99
2023-02-04T23:14:25.214Z,2.04
2023-02-04T23:16:51.907Z,2.04
2023-02-04T23:19:18.617Z,2.01
2023-02-04T23:21:45.156Z,1.99
2023-02-04T23:24:11.726Z,1.97
2023-02-04T23:26:38.268Z,1.95
2023-02-04T23:29:04.789Z,1.95
2023-02-04T23:31:31.309Z,1.94
2023-02-04T23:33:57.957Z,1.94
2023-02-04T23:36:24.473Z,1.95
2023-02-04T23:38:51.248Z,1.95
2023-02-04T23:41:17.721Z,1.95
2023-02-04T23:43:44.299Z,1.94
2023-02-04T23:46:10.874Z,1.94
2023-02-04T23:48:37.434Z,1.96
2023-02-04T23:51:03.977Z,1.95
2023-02-04T23:53:30.516Z,1.94
2023-02-04T23:55:57.123Z,1.93
2023-02-04T23:58:23.690Z,1.93
